sensor_id;sensor_type;location;lat;lon;timestamp;P1;durP1;ratioP1;P2;durP2;ratioP2
35290;SDS011;21411;50.024;19.220;2024-01-16T00:01:06;9.60;;;7.30;;
35290;SDS011;21411;50.024;19.220;2024-01-16T00:03:45;11.00;;;6.80;;
35290;SDS011;21411;50.024;19.220;2024-01-16T00:06:12;9.70;;;6.70;;
35290;SDS011;21411;50.024;19.220;2024-01-16T00:08:39;11.30;;;7.40;;
35290;SDS011;21411;50.024;19.220;2024-01-16T00:11:06;7.80;;;6.50;;
35290;SDS011;21411;50.024;19.220;2024-01-16T00:13:32;9.00;;;6.60;;
35290;SDS011;21411;50.024;19.220;2024-01-16T00:16:01;9.40;;;6.50;;
35290;SDS011;21411;50.024;19.220;2024-01-16T00:18:28;8.50;;;6.80;;
35290;SDS011;21411;50.024;19.220;2024-01-16T00:20:55;10.10;;;7.60;;
35290;SDS011;21411;50.024;19.220;2024-01-16T00:23:22;8.40;;;6.10;;
35290;SDS011;21411;50.024;19.220;2024-01-16T00:25:48;9.80;;;7.70;;
35290;SDS011;21411;50.024;19.220;2024-01-16T00:28:15;10.10;;;7.50;;
35290;SDS011;21411;50.024;19.220;2024-01-16T00:30:41;9.50;;;7.50;;
35290;SDS011;21411;50.024;19.220;2024-01-16T00:33:08;10.30;;;7.60;;
35290;SDS011;21411;50.024;19.220;2024-01-16T00:35:35;10.80;;;7.50;;
35290;SDS011;21411;50.024;19.220;2024-01-16T00:38:02;8.20;;;6.90;;
35290;SDS011;21411;50.024;19.220;2024-01-16T00:40:29;10.60;;;7.70;;
35290;SDS011;21411;50.024;19.220;2024-01-16T00:42:55;9.90;;;8.10;;
35290;SDS011;21411;50.024;19.220;2024-01-16T00:45:22;10.00;;;6.20;;
35290;SDS011;21411;50.024;19.220;2024-01-16T00:47:48;10.40;;;9.10;;
35290;SDS011;21411;50.024;19.220;2024-01-16T00:50:15;10.40;;;8.30;;
35290;SDS011;21411;50.024;19.220;2024-01-16T00:52:42;10.70;;;8.20;;
35290;SDS011;21411;50.024;19.220;2024-01-16T00:55:08;13.30;;;8.10;;
35290;SDS011;21411;50.024;19.220;2024-01-16T00:57:35;9.50;;;7.90;;
35290;SDS011;21411;50.024;19.220;2024-01-16T01:00:02;12.10;;;8.30;;
35290;SDS011;21411;50.024;19.220;2024-01-16T01:02:30;7.80;;;7.00;;
35290;SDS011;21411;50.024;19.220;2024-01-16T01:04:56;9.00;;;8.00;;
35290;SDS011;21411;50.024;19.220;2024-01-16T01:07:23;10.50;;;7.30;;
35290;SDS011;21411;50.024;19.220;2024-01-16T01:09:51;12.70;;;8.20;;
35290;SDS011;21411;50.024;19.220;2024-01-16T01:12:18;11.50;;;8.90;;
35290;SDS011;21411;50.024;19.220;2024-01-16T01:14:45;12.00;;;8.30;;
35290;SDS011;21411;50.024;19.220;2024-01-16T01:17:11;9.30;;;7.10;;
35290;SDS011;21411;50.024;19.220;2024-01-16T01:19:38;9.50;;;7.40;;
35290;SDS011;21411;50.024;19.220;2024-01-16T01:22:05;9.90;;;7.50;;
35290;SDS011;21411;50.024;19.220;2024-01-16T01:24:31;11.90;;;8.90;;
35290;SDS011;21411;50.024;19.220;2024-01-16T01:26:58;10.30;;;7.60;;
35290;SDS011;21411;50.024;19.220;2024-01-16T01:29:24;10.50;;;7.10;;
35290;SDS011;21411;50.024;19.220;2024-01-16T01:31:51;7.60;;;6.70;;
35290;SDS011;21411;50.024;19.220;2024-01-16T01:34:18;9.10;;;7.30;;
35290;SDS011;21411;50.024;19.220;2024-01-16T01:36:44;9.10;;;7.40;;
35290;SDS011;21411;50.024;19.220;2024-01-16T01:39:11;10.10;;;7.20;;
35290;SDS011;21411;50.024;19.220;2024-01-16T01:41:38;10.90;;;7.90;;
35290;SDS011;21411;50.024;19.220;2024-01-16T01:44:05;8.30;;;7.50;;
35290;SDS011;21411;50.024;19.220;2024-01-16T01:46:32;9.90;;;7.30;;
35290;SDS011;21411;50.024;19.220;2024-01-16T01:49:01;9.40;;;7.10;;
35290;SDS011;21411;50.024;19.220;2024-01-16T01:51:29;8.30;;;6.90;;
35290;SDS011;21411;50.024;19.220;2024-01-16T01:53:56;9.60;;;7.80;;
35290;SDS011;21411;50.024;19.220;2024-01-16T01:56:25;8.80;;;7.00;;
35290;SDS011;21411;50.024;19.220;2024-01-16T01:58:53;8.40;;;7.50;;
35290;SDS011;21411;50.024;19.220;2024-01-16T02:01:23;9.60;;;7.70;;
35290;SDS011;21411;50.024;19.220;2024-01-16T02:03:52;9.00;;;7.10;;
35290;SDS011;21411;50.024;19.220;2024-01-16T02:06:20;7.80;;;7.00;;
35290;SDS011;21411;50.024;19.220;2024-01-16T02:08:47;8.50;;;7.30;;
35290;SDS011;21411;50.024;19.220;2024-01-16T02:11:14;11.10;;;6.70;;
35290;SDS011;21411;50.024;19.220;2024-01-16T02:13:41;9.00;;;7.50;;
35290;SDS011;21411;50.024;19.220;2024-01-16T02:16:17;9.00;;;6.50;;
35290;SDS011;21411;50.024;19.220;2024-01-16T02:18:45;7.90;;;6.90;;
35290;SDS011;21411;50.024;19.220;2024-01-16T02:21:12;8.00;;;6.60;;
35290;SDS011;21411;50.024;19.220;2024-01-16T02:23:43;8.60;;;7.10;;
35290;SDS011;21411;50.024;19.220;2024-01-16T02:26:10;7.20;;;5.50;;
35290;SDS011;21411;50.024;19.220;2024-01-16T02:28:37;8.40;;;5.90;;
35290;SDS011;21411;50.024;19.220;2024-01-16T02:31:03;7.50;;;6.40;;
35290;SDS011;21411;50.024;19.220;2024-01-16T02:33:30;6.90;;;5.60;;
35290;SDS011;21411;50.024;19.220;2024-01-16T02:35:56;8.40;;;6.30;;
35290;SDS011;21411;50.024;19.220;2024-01-16T02:38:23;6.30;;;5.50;;
35290;SDS011;21411;50.024;19.220;2024-01-16T02:40:50;6.60;;;5.90;;
35290;SDS011;21411;50.024;19.220;2024-01-16T02:43:17;8.20;;;6.80;;
35290;SDS011;21411;50.024;19.220;2024-01-16T02:45:43;7.90;;;6.30;;
35290;SDS011;21411;50.024;19.220;2024-01-16T02:48:10;9.10;;;6.60;;
35290;SDS011;21411;50.024;19.220;2024-01-16T02:50:37;8.10;;;5.50;;
35290;SDS011;21411;50.024;19.220;2024-01-16T02:53:04;8.60;;;6.90;;
35290;SDS011;21411;50.024;19.220;2024-01-16T02:55:31;7.80;;;7.00;;
35290;SDS011;21411;50.024;19.220;2024-01-16T02:57:58;9.50;;;7.00;;
35290;SDS011;21411;50.024;19.220;2024-01-16T03:00:37;7.40;;;6.30;;
35290;SDS011;21411;50.024;19.220;2024-01-16T03:03:04;8.90;;;7.10;;
35290;SDS011;21411;50.024;19.220;2024-01-16T03:05:31;8.80;;;6.60;;
35290;SDS011;21411;50.024;19.220;2024-01-16T03:07:58;9.00;;;7.00;;
35290;SDS011;21411;50.024;19.220;2024-01-16T03:10:24;7.80;;;5.90;;
35290;SDS011;21411;50.024;19.220;2024-01-16T03:12:51;9.50;;;7.20;;
35290;SDS011;21411;50.024;19.220;2024-01-16T03:15:18;8.10;;;7.30;;
35290;SDS011;21411;50.024;19.220;2024-01-16T03:17:45;8.50;;;6.50;;
35290;SDS011;21411;50.024;19.220;2024-01-16T03:20:11;9.40;;;7.00;;
35290;SDS011;21411;50.024;19.220;2024-01-16T03:22:38;11.90;;;7.60;;
35290;SDS011;21411;50.024;19.220;2024-01-16T03:25:05;10.80;;;7.80;;
35290;SDS011;21411;50.024;19.220;2024-01-16T03:27:33;10.50;;;7.50;;
35290;SDS011;21411;50.024;19.220;2024-01-16T03:30:01;7.10;;;5.80;;
35290;SDS011;21411;50.024;19.220;2024-01-16T03:32:29;7.90;;;6.20;;
35290;SDS011;21411;50.024;19.220;2024-01-16T03:34:55;6.70;;;5.80;;
35290;SDS011;21411;50.024;19.220;2024-01-16T03:37:22;5.90;;;5.20;;
35290;SDS011;21411;50.024;19.220;2024-01-16T03:39:49;5.90;;;5.20;;
35290;SDS011;21411;50.024;19.220;2024-01-16T03:42:16;6.50;;;5.80;;
35290;SDS011;21411;50.024;19.220;2024-01-16T03:44:43;5.90;;;5.10;;
35290;SDS011;21411;50.024;19.220;2024-01-16T03:47:09;6.00;;;5.40;;
35290;SDS011;21411;50.024;19.220;2024-01-16T03:49:36;6.30;;;5.50;;
35290;SDS011;21411;50.024;19.220;2024-01-16T03:52:02;9.10;;;5.20;;
35290;SDS011;21411;50.024;19.220;2024-01-16T03:54:29;6.00;;;5.40;;
35290;SDS011;21411;50.024;19.220;2024-01-16T03:56:56;5.70;;;5.10;;
35290;SDS011;21411;50.024;19.220;2024-01-16T03:59:23;8.40;;;5.70;;
35290;SDS011;21411;50.024;19.220;2024-01-16T04:01:49;7.90;;;6.10;;
35290;SDS011;21411;50.024;19.220;2024-01-16T04:04:16;8.10;;;5.70;;
35290;SDS011;21411;50.024;19.220;2024-01-16T04:06:43;7.10;;;6.20;;
35290;SDS011;21411;50.024;19.220;2024-01-16T04:09:10;8.40;;;6.20;;
35290;SDS011;21411;50.024;19.220;2024-01-16T04:11:36;8.50;;;6.80;;
35290;SDS011;21411;50.024;19.220;2024-01-16T04:14:03;11.10;;;7.40;;
35290;SDS011;21411;50.024;19.220;2024-01-16T04:16:30;7.50;;;5.20;;
35290;SDS011;21411;50.024;19.220;2024-01-16T04:18:56;6.50;;;5.80;;
35290;SDS011;21411;50.024;19.220;2024-01-16T04:21:23;6.20;;;5.10;;
35290;SDS011;21411;50.024;19.220;2024-01-16T04:23:50;7.50;;;6.30;;
35290;SDS011;21411;50.024;19.220;2024-01-16T04:26:16;8.40;;;6.40;;
35290;SDS011;21411;50.024;19.220;2024-01-16T04:28:43;8.30;;;5.70;;
35290;SDS011;21411;50.024;19.220;2024-01-16T04:31:09;7.40;;;6.50;;
35290;SDS011;21411;50.024;19.220;2024-01-16T04:33:38;7.90;;;6.70;;
35290;SDS011;21411;50.024;19.220;2024-01-16T04:36:05;7.20;;;5.80;;
35290;SDS011;21411;50.024;19.220;2024-01-16T04:38:33;11.10;;;7.10;;
35290;SDS011;21411;50.024;19.220;2024-01-16T04:41:02;8.20;;;6.80;;
35290;SDS011;21411;50.024;19.220;2024-01-16T04:43:29;8.00;;;6.60;;
35290;SDS011;21411;50.024;19.220;2024-01-16T04:45:56;8.40;;;6.90;;
35290;SDS011;21411;50.024;19.220;2024-01-16T04:48:23;8.20;;;7.10;;
35290;SDS011;21411;50.024;19.220;2024-01-16T04:50:49;8.30;;;7.00;;
35290;SDS011;21411;50.024;19.220;2024-01-16T04:53:16;7.40;;;6.70;;
35290;SDS011;21411;50.024;19.220;2024-01-16T04:55:44;7.40;;;6.00;;
35290;SDS011;21411;50.024;19.220;2024-01-16T04:58:10;8.60;;;6.50;;
35290;SDS011;21411;50.024;19.220;2024-01-16T05:00:37;7.90;;;6.80;;
35290;SDS011;21411;50.024;19.220;2024-01-16T05:03:04;6.00;;;5.30;;
35290;SDS011;21411;50.024;19.220;2024-01-16T05:05:31;7.70;;;6.00;;
35290;SDS011;21411;50.024;19.220;2024-01-16T05:08:00;10.00;;;7.40;;
35290;SDS011;21411;50.024;19.220;2024-01-16T05:10:28;8.60;;;6.20;;
35290;SDS011;21411;50.024;19.220;2024-01-16T05:12:55;11.00;;;7.30;;
35290;SDS011;21411;50.024;19.220;2024-01-16T05:15:22;10.40;;;7.10;;
35290;SDS011;21411;50.024;19.220;2024-01-16T05:17:49;8.70;;;7.70;;
35290;SDS011;21411;50.024;19.220;2024-01-16T05:20:15;9.80;;;7.10;;
35290;SDS011;21411;50.024;19.220;2024-01-16T05:22:42;8.50;;;6.30;;
35290;SDS011;21411;50.024;19.220;2024-01-16T05:25:09;9.00;;;6.50;;
35290;SDS011;21411;50.024;19.220;2024-01-16T05:27:35;8.10;;;6.10;;
35290;SDS011;21411;50.024;19.220;2024-01-16T05:30:02;8.00;;;6.20;;
35290;SDS011;21411;50.024;19.220;2024-01-16T05:32:29;7.30;;;5.90;;
35290;SDS011;21411;50.024;19.220;2024-01-16T05:34:56;7.40;;;6.40;;
35290;SDS011;21411;50.024;19.220;2024-01-16T05:37:22;10.60;;;7.90;;
35290;SDS011;21411;50.024;19.220;2024-01-16T05:39:49;10.80;;;7.30;;
35290;SDS011;21411;50.024;19.220;2024-01-16T05:42:15;8.30;;;6.40;;
35290;SDS011;21411;50.024;19.220;2024-01-16T05:44:42;9.50;;;7.90;;
35290;SDS011;21411;50.024;19.220;2024-01-16T05:47:10;10.40;;;7.20;;
35290;SDS011;21411;50.024;19.220;2024-01-16T05:49:37;12.90;;;10.50;;
35290;SDS011;21411;50.024;19.220;2024-01-16T05:52:03;12.00;;;8.40;;
35290;SDS011;21411;50.024;19.220;2024-01-16T05:54:30;10.50;;;8.50;;
35290;SDS011;21411;50.024;19.220;2024-01-16T05:56:56;13.60;;;10.40;;
35290;SDS011;21411;50.024;19.220;2024-01-16T05:59:23;12.30;;;10.00;;
35290;SDS011;21411;50.024;19.220;2024-01-16T06:01:50;12.40;;;8.70;;
35290;SDS011;21411;50.024;19.220;2024-01-16T06:04:16;11.90;;;8.30;;
35290;SDS011;21411;50.024;19.220;2024-01-16T06:06:43;10.00;;;7.70;;
35290;SDS011;21411;50.024;19.220;2024-01-16T06:09:11;8.90;;;7.60;;
35290;SDS011;21411;50.024;19.220;2024-01-16T06:11:40;10.60;;;8.90;;
35290;SDS011;21411;50.024;19.220;2024-01-16T06:14:09;8.70;;;7.40;;
35290;SDS011;21411;50.024;19.220;2024-01-16T06:16:38;13.30;;;9.60;;
35290;SDS011;21411;50.024;19.220;2024-01-16T06:19:04;13.60;;;9.60;;
35290;SDS011;21411;50.024;19.220;2024-01-16T06:21:31;11.50;;;9.10;;
35290;SDS011;21411;50.024;19.220;2024-01-16T06:23:58;11.30;;;9.20;;
35290;SDS011;21411;50.024;19.220;2024-01-16T06:26:24;11.50;;;8.60;;
35290;SDS011;21411;50.024;19.220;2024-01-16T06:28:51;11.00;;;8.90;;
35290;SDS011;21411;50.024;19.220;2024-01-16T06:31:17;11.10;;;9.80;;
35290;SDS011;21411;50.024;19.220;2024-01-16T06:33:44;12.80;;;8.70;;
35290;SDS011;21411;50.024;19.220;2024-01-16T06:36:11;12.40;;;9.70;;
35290;SDS011;21411;50.024;19.220;2024-01-16T06:38:38;14.70;;;10.30;;
35290;SDS011;21411;50.024;19.220;2024-01-16T06:41:06;12.60;;;9.00;;
35290;SDS011;21411;50.024;19.220;2024-01-16T06:43:32;12.60;;;9.20;;
35290;SDS011;21411;50.024;19.220;2024-01-16T06:45:59;10.90;;;8.60;;
35290;SDS011;21411;50.024;19.220;2024-01-16T06:48:26;8.80;;;6.90;;
35290;SDS011;21411;50.024;19.220;2024-01-16T06:50:53;11.00;;;8.00;;
35290;SDS011;21411;50.024;19.220;2024-01-16T06:53:19;9.10;;;7.20;;
35290;SDS011;21411;50.024;19.220;2024-01-16T06:55:46;8.10;;;7.10;;
35290;SDS011;21411;50.024;19.220;2024-01-16T06:58:13;8.80;;;7.90;;
35290;SDS011;21411;50.024;19.220;2024-01-16T07:00:39;9.40;;;7.30;;
35290;SDS011;21411;50.024;19.220;2024-01-16T07:03:07;10.60;;;7.10;;
35290;SDS011;21411;50.024;19.220;2024-01-16T07:05:34;7.50;;;6.70;;
35290;SDS011;21411;50.024;19.220;2024-01-16T07:08:01;9.10;;;7.50;;
35290;SDS011;21411;50.024;19.220;2024-01-16T07:10:27;9.30;;;7.40;;
35290;SDS011;21411;50.024;19.220;2024-01-16T07:12:54;9.50;;;7.30;;
35290;SDS011;21411;50.024;19.220;2024-01-16T07:15:21;10.80;;;7.70;;
35290;SDS011;21411;50.024;19.220;2024-01-16T07:17:48;8.80;;;7.50;;
35290;SDS011;21411;50.024;19.220;2024-01-16T07:20:14;9.60;;;6.90;;
35290;SDS011;21411;50.024;19.220;2024-01-16T07:22:41;9.30;;;7.70;;
35290;SDS011;21411;50.024;19.220;2024-01-16T07:25:08;10.80;;;8.20;;
35290;SDS011;21411;50.024;19.220;2024-01-16T07:27:35;14.80;;;8.30;;
35290;SDS011;21411;50.024;19.220;2024-01-16T07:30:03;11.20;;;8.00;;
35290;SDS011;21411;50.024;19.220;2024-01-16T07:32:31;11.90;;;7.90;;
35290;SDS011;21411;50.024;19.220;2024-01-16T07:34:58;12.20;;;8.00;;
35290;SDS011;21411;50.024;19.220;2024-01-16T07:37:25;9.90;;;7.00;;
35290;SDS011;21411;50.024;19.220;2024-01-16T07:39:52;11.60;;;6.70;;
35290;SDS011;21411;50.024;19.220;2024-01-16T07:42:18;9.30;;;6.50;;
35290;SDS011;21411;50.024;19.220;2024-01-16T07:44:45;8.70;;;6.10;;
35290;SDS011;21411;50.024;19.220;2024-01-16T07:47:11;10.00;;;5.90;;
35290;SDS011;21411;50.024;19.220;2024-01-16T07:49:38;7.70;;;4.70;;
35290;SDS011;21411;50.024;19.220;2024-01-16T07:52:05;8.70;;;5.20;;
35290;SDS011;21411;50.024;19.220;2024-01-16T07:54:32;7.10;;;4.70;;
35290;SDS011;21411;50.024;19.220;2024-01-16T07:56:59;9.40;;;5.50;;
35290;SDS011;21411;50.024;19.220;2024-01-16T07:59:25;9.20;;;5.80;;
35290;SDS011;21411;50.024;19.220;2024-01-16T08:01:53;10.50;;;5.40;;
35290;SDS011;21411;50.024;19.220;2024-01-16T08:04:20;8.60;;;5.40;;
35290;SDS011;21411;50.024;19.220;2024-01-16T08:06:47;5.90;;;4.20;;
35290;SDS011;21411;50.024;19.220;2024-01-16T08:09:14;6.40;;;4.30;;
35290;SDS011;21411;50.024;19.220;2024-01-16T08:11:40;8.70;;;5.70;;
35290;SDS011;21411;50.024;19.220;2024-01-16T08:14:07;11.20;;;5.70;;
35290;SDS011;21411;50.024;19.220;2024-01-16T08:16:34;7.80;;;5.00;;
35290;SDS011;21411;50.024;19.220;2024-01-16T08:19:01;8.00;;;5.80;;
35290;SDS011;21411;50.024;19.220;2024-01-16T08:21:29;7.80;;;5.20;;
35290;SDS011;21411;50.024;19.220;2024-01-16T08:23:56;6.80;;;5.30;;
35290;SDS011;21411;50.024;19.220;2024-01-16T08:26:22;7.30;;;4.60;;
35290;SDS011;21411;50.024;19.220;2024-01-16T08:28:49;8.30;;;4.90;;
35290;SDS011;21411;50.024;19.220;2024-01-16T08:31:17;8.50;;;5.50;;
35290;SDS011;21411;50.024;19.220;2024-01-16T08:33:47;8.20;;;5.50;;
35290;SDS011;21411;50.024;19.220;2024-01-16T08:36:14;7.30;;;4.80;;
35290;SDS011;21411;50.024;19.220;2024-01-16T08:38:41;7.30;;;4.70;;
35290;SDS011;21411;50.024;19.220;2024-01-16T08:41:08;7.30;;;4.40;;
35290;SDS011;21411;50.024;19.220;2024-01-16T08:43:35;7.60;;;4.40;;
35290;SDS011;21411;50.024;19.220;2024-01-16T08:46:02;8.40;;;4.90;;
35290;SDS011;21411;50.024;19.220;2024-01-16T08:48:28;7.70;;;4.40;;
35290;SDS011;21411;50.024;19.220;2024-01-16T08:50:55;9.30;;;4.70;;
35290;SDS011;21411;50.024;19.220;2024-01-16T08:53:22;9.00;;;5.30;;
35290;SDS011;21411;50.024;19.220;2024-01-16T08:55:49;7.40;;;4.30;;
35290;SDS011;21411;50.024;19.220;2024-01-16T08:58:16;5.20;;;3.60;;
35290;SDS011;21411;50.024;19.220;2024-01-16T09:00:43;6.50;;;4.00;;
35290;SDS011;21411;50.024;19.220;2024-01-16T09:03:09;4.90;;;4.10;;
35290;SDS011;21411;50.024;19.220;2024-01-16T09:05:39;6.00;;;4.10;;
35290;SDS011;21411;50.024;19.220;2024-01-16T09:08:05;7.10;;;4.10;;
35290;SDS011;21411;50.024;19.220;2024-01-16T09:10:32;7.70;;;4.90;;
35290;SDS011;21411;50.024;19.220;2024-01-16T09:12:58;7.40;;;4.40;;
35290;SDS011;21411;50.024;19.220;2024-01-16T09:15:25;7.60;;;4.30;;
35290;SDS011;21411;50.024;19.220;2024-01-16T09:17:52;6.80;;;4.40;;
35290;SDS011;21411;50.024;19.220;2024-01-16T09:20:18;6.10;;;4.30;;
35290;SDS011;21411;50.024;19.220;2024-01-16T09:22:45;7.50;;;4.50;;
35290;SDS011;21411;50.024;19.220;2024-01-16T09:25:12;6.00;;;4.20;;
35290;SDS011;21411;50.024;19.220;2024-01-16T09:27:38;5.90;;;3.60;;
35290;SDS011;21411;50.024;19.220;2024-01-16T09:30:05;6.90;;;4.20;;
35290;SDS011;21411;50.024;19.220;2024-01-16T09:32:33;5.40;;;3.50;;
35290;SDS011;21411;50.024;19.220;2024-01-16T09:35:02;6.50;;;4.50;;
35290;SDS011;21411;50.024;19.220;2024-01-16T09:37:30;8.50;;;4.90;;
35290;SDS011;21411;50.024;19.220;2024-01-16T09:40:00;7.40;;;4.80;;
35290;SDS011;21411;50.024;19.220;2024-01-16T09:42:27;9.30;;;4.60;;
35290;SDS011;21411;50.024;19.220;2024-01-16T09:44:54;8.10;;;5.30;;
35290;SDS011;21411;50.024;19.220;2024-01-16T09:47:24;7.20;;;4.90;;
35290;SDS011;21411;50.024;19.220;2024-01-16T09:49:52;6.80;;;5.10;;
35290;SDS011;21411;50.024;19.220;2024-01-16T09:52:20;8.20;;;5.10;;
35290;SDS011;21411;50.024;19.220;2024-01-16T09:54:47;6.60;;;4.30;;
35290;SDS011;21411;50.024;19.220;2024-01-16T09:57:14;8.60;;;4.90;;
35290;SDS011;21411;50.024;19.220;2024-01-16T10:02:12;9.20;;;4.50;;
35290;SDS011;21411;50.024;19.220;2024-01-16T10:04:41;8.90;;;5.30;;
35290;SDS011;21411;50.024;19.220;2024-01-16T10:07:09;10.00;;;4.90;;
35290;SDS011;21411;50.024;19.220;2024-01-16T10:09:38;6.30;;;4.00;;
35290;SDS011;21411;50.024;19.220;2024-01-16T10:12:06;8.50;;;4.70;;
35290;SDS011;21411;50.024;19.220;2024-01-16T10:14:33;6.80;;;4.50;;
35290;SDS011;21411;50.024;19.220;2024-01-16T10:17:00;8.00;;;4.80;;
35290;SDS011;21411;50.024;19.220;2024-01-16T10:19:52;5.20;;;3.80;;
35290;SDS011;21411;50.024;19.220;2024-01-16T10:22:20;7.40;;;4.50;;
35290;SDS011;21411;50.024;19.220;2024-01-16T10:24:48;6.90;;;4.60;;
35290;SDS011;21411;50.024;19.220;2024-01-16T10:27:15;6.30;;;4.40;;
35290;SDS011;21411;50.024;19.220;2024-01-16T10:29:56;5.50;;;3.20;;
35290;SDS011;21411;50.024;19.220;2024-01-16T10:32:27;4.50;;;2.60;;
35290;SDS011;21411;50.024;19.220;2024-01-16T10:35:16;6.10;;;3.20;;
35290;SDS011;21411;50.024;19.220;2024-01-16T10:37:48;4.10;;;3.40;;
35290;SDS011;21411;50.024;19.220;2024-01-16T10:40:20;4.20;;;2.90;;
35290;SDS011;21411;50.024;19.220;2024-01-16T10:42:59;6.10;;;3.10;;
35290;SDS011;21411;50.024;19.220;2024-01-16T10:45:33;5.90;;;3.30;;
35290;SDS011;21411;50.024;19.220;2024-01-16T10:48:03;4.90;;;3.50;;
35290;SDS011;21411;50.024;19.220;2024-01-16T10:50:31;7.20;;;3.80;;
35290;SDS011;21411;50.024;19.220;2024-01-16T10:53:07;4.70;;;2.80;;
35290;SDS011;21411;50.024;19.220;2024-01-16T10:55:38;5.50;;;3.30;;
35290;SDS011;21411;50.024;19.220;2024-01-16T10:58:15;5.00;;;3.20;;
35290;SDS011;21411;50.024;19.220;2024-01-16T11:00:43;6.80;;;3.20;;
35290;SDS011;21411;50.024;19.220;2024-01-16T11:05:53;5.40;;;3.60;;
35290;SDS011;21411;50.024;19.220;2024-01-16T11:08:23;4.10;;;3.30;;
35290;SDS011;21411;50.024;19.220;2024-01-16T11:10:57;4.30;;;3.30;;
35290;SDS011;21411;50.024;19.220;2024-01-16T11:13:25;5.90;;;3.40;;
35290;SDS011;21411;50.024;19.220;2024-01-16T11:15:52;4.60;;;3.00;;
35290;SDS011;21411;50.024;19.220;2024-01-16T11:18:20;4.80;;;3.10;;
35290;SDS011;21411;50.024;19.220;2024-01-16T11:20:47;5.90;;;4.50;;
35290;SDS011;21411;50.024;19.220;2024-01-16T11:23:13;7.50;;;3.70;;
35290;SDS011;21411;50.024;19.220;2024-01-16T11:25:40;5.30;;;3.40;;
35290;SDS011;21411;50.024;19.220;2024-01-16T11:28:07;6.70;;;3.60;;
35290;SDS011;21411;50.024;19.220;2024-01-16T11:30:38;4.90;;;3.40;;
35290;SDS011;21411;50.024;19.220;2024-01-16T11:33:06;6.40;;;3.60;;
35290;SDS011;21411;50.024;19.220;2024-01-16T11:35:52;4.40;;;3.30;;
35290;SDS011;21411;50.024;19.220;2024-01-16T11:38:19;6.20;;;3.50;;
35290;SDS011;21411;50.024;19.220;2024-01-16T11:40:48;6.10;;;4.10;;
35290;SDS011;21411;50.024;19.220;2024-01-16T11:46:00;5.70;;;3.70;;
35290;SDS011;21411;50.024;19.220;2024-01-16T11:48:28;6.20;;;4.20;;
35290;SDS011;21411;50.024;19.220;2024-01-16T11:50:55;7.30;;;4.60;;
35290;SDS011;21411;50.024;19.220;2024-01-16T11:58:45;5.50;;;4.10;;
35290;SDS011;21411;50.024;19.220;2024-01-16T12:01:19;6.20;;;3.70;;
35290;SDS011;21411;50.024;19.220;2024-01-16T12:04:03;5.20;;;3.30;;
35290;SDS011;21411;50.024;19.220;2024-01-16T12:06:34;6.10;;;3.00;;
35290;SDS011;21411;50.024;19.220;2024-01-16T12:09:14;7.40;;;3.80;;
35290;SDS011;21411;50.024;19.220;2024-01-16T12:11:43;5.10;;;3.40;;
35290;SDS011;21411;50.024;19.220;2024-01-16T12:14:22;5.50;;;4.40;;
35290;SDS011;21411;50.024;19.220;2024-01-16T12:16:49;7.60;;;4.50;;
35290;SDS011;21411;50.024;19.220;2024-01-16T12:19:15;7.00;;;3.50;;
35290;SDS011;21411;50.024;19.220;2024-01-16T12:21:45;7.00;;;4.30;;
35290;SDS011;21411;50.024;19.220;2024-01-16T12:26:39;5.60;;;3.70;;
35290;SDS011;21411;50.024;19.220;2024-01-16T12:29:07;6.50;;;4.10;;
35290;SDS011;21411;50.024;19.220;2024-01-16T12:31:34;5.60;;;3.60;;
35290;SDS011;21411;50.024;19.220;2024-01-16T12:34:07;5.20;;;3.60;;
35290;SDS011;21411;50.024;19.220;2024-01-16T12:36:35;5.10;;;3.20;;
35290;SDS011;21411;50.024;19.220;2024-01-16T12:39:03;4.10;;;3.60;;
35290;SDS011;21411;50.024;19.220;2024-01-16T12:41:32;4.30;;;2.80;;
35290;SDS011;21411;50.024;19.220;2024-01-16T12:44:03;3.40;;;2.40;;
35290;SDS011;21411;50.024;19.220;2024-01-16T12:46:30;5.50;;;3.00;;
35290;SDS011;21411;50.024;19.220;2024-01-16T12:49:02;6.50;;;3.40;;
35290;SDS011;21411;50.024;19.220;2024-01-16T12:51:29;6.10;;;3.90;;
35290;SDS011;21411;50.024;19.220;2024-01-16T12:54:09;4.40;;;3.40;;
35290;SDS011;21411;50.024;19.220;2024-01-16T12:56:37;5.00;;;3.10;;
35290;SDS011;21411;50.024;19.220;2024-01-16T12:59:13;5.10;;;2.80;;
35290;SDS011;21411;50.024;19.220;2024-01-16T13:01:40;4.80;;;3.30;;
35290;SDS011;21411;50.024;19.220;2024-01-16T13:04:08;5.30;;;3.00;;
35290;SDS011;21411;50.024;19.220;2024-01-16T13:06:35;4.60;;;3.10;;
35290;SDS011;21411;50.024;19.220;2024-01-16T13:09:10;6.30;;;2.90;;
35290;SDS011;21411;50.024;19.220;2024-01-16T13:11:54;4.60;;;3.60;;
35290;SDS011;21411;50.024;19.220;2024-01-16T13:14:22;6.70;;;4.30;;
35290;SDS011;21411;50.024;19.220;2024-01-16T13:16:49;6.20;;;4.20;;
35290;SDS011;21411;50.024;19.220;2024-01-16T13:19:20;10.10;;;5.30;;
35290;SDS011;21411;50.024;19.220;2024-01-16T13:21:50;8.40;;;5.40;;
35290;SDS011;21411;50.024;19.220;2024-01-16T13:24:17;12.10;;;7.10;;
35290;SDS011;21411;50.024;19.220;2024-01-16T13:26:46;10.10;;;7.10;;
35290;SDS011;21411;50.024;19.220;2024-01-16T13:29:13;10.90;;;7.20;;
35290;SDS011;21411;50.024;19.220;2024-01-16T13:31:39;12.00;;;7.30;;
35290;SDS011;21411;50.024;19.220;2024-01-16T13:34:06;22.70;;;11.00;;
35290;SDS011;21411;50.024;19.220;2024-01-16T13:36:33;12.30;;;7.10;;
35290;SDS011;21411;50.024;19.220;2024-01-16T13:39:00;13.00;;;7.20;;
35290;SDS011;21411;50.024;19.220;2024-01-16T13:41:26;28.90;;;14.40;;
35290;SDS011;21411;50.024;19.220;2024-01-16T13:43:53;23.50;;;13.40;;
35290;SDS011;21411;50.024;19.220;2024-01-16T13:46:20;28.50;;;16.90;;
35290;SDS011;21411;50.024;19.220;2024-01-16T13:48:48;26.20;;;15.00;;
35290;SDS011;21411;50.024;19.220;2024-01-16T13:51:15;20.30;;;13.50;;
35290;SDS011;21411;50.024;19.220;2024-01-16T13:53:42;17.20;;;11.60;;
35290;SDS011;21411;50.024;19.220;2024-01-16T13:56:08;13.20;;;8.70;;
35290;SDS011;21411;50.024;19.220;2024-01-16T13:58:35;14.00;;;8.50;;
35290;SDS011;21411;50.024;19.220;2024-01-16T14:01:02;14.70;;;9.10;;
35290;SDS011;21411;50.024;19.220;2024-01-16T14:03:30;19.10;;;11.90;;
35290;SDS011;21411;50.024;19.220;2024-01-16T14:05:56;20.10;;;11.70;;
35290;SDS011;21411;50.024;19.220;2024-01-16T14:08:23;30.20;;;16.40;;
35290;SDS011;21411;50.024;19.220;2024-01-16T14:10:50;25.50;;;14.50;;
35290;SDS011;21411;50.024;19.220;2024-01-16T14:13:17;21.80;;;12.90;;
35290;SDS011;21411;50.024;19.220;2024-01-16T14:15:44;17.60;;;12.00;;
35290;SDS011;21411;50.024;19.220;2024-01-16T14:18:10;14.60;;;10.70;;
35290;SDS011;21411;50.024;19.220;2024-01-16T14:20:37;12.20;;;7.80;;
35290;SDS011;21411;50.024;19.220;2024-01-16T14:23:04;11.60;;;9.30;;
35290;SDS011;21411;50.024;19.220;2024-01-16T14:25:30;14.00;;;10.40;;
35290;SDS011;21411;50.024;19.220;2024-01-16T14:27:59;11.30;;;7.60;;
35290;SDS011;21411;50.024;19.220;2024-01-16T14:30:29;10.70;;;7.00;;
35290;SDS011;21411;50.024;19.220;2024-01-16T14:32:57;10.40;;;6.70;;
35290;SDS011;21411;50.024;19.220;2024-01-16T14:35:24;9.90;;;6.30;;
35290;SDS011;21411;50.024;19.220;2024-01-16T14:37:51;10.70;;;7.30;;
35290;SDS011;21411;50.024;19.220;2024-01-16T14:40:18;10.40;;;7.00;;
35290;SDS011;21411;50.024;19.220;2024-01-16T14:42:52;7.90;;;6.80;;
35290;SDS011;21411;50.024;19.220;2024-01-16T14:45:20;10.00;;;7.40;;
35290;SDS011;21411;50.024;19.220;2024-01-16T14:47:47;11.00;;;7.50;;
35290;SDS011;21411;50.024;19.220;2024-01-16T14:50:15;11.10;;;7.90;;